sensor_id;sensor_type;location;lat;lon;timestamp;P1;durP1;ratioP1;P2;durP2;ratioP2
9906;SDS011;4992;51.628;6.664;2024-03-17T00:02:16;9.87;;;6.60;;
9906;SDS011;4992;51.628;6.664;2024-03-17T00:04:43;11.77;;;6.97;;
9906;SDS011;4992;51.628;6.664;2024-03-17T00:07:08;9.90;;;7.20;;
9906;SDS011;4992;51.628;6.664;2024-03-17T00:09:34;12.43;;;7.90;;
9906;SDS011;4992;51.628;6.664;2024-03-17T00:11:59;12.60;;;7.20;;
9906;SDS011;4992;51.628;6.664;2024-03-17T00:14:25;11.07;;;7.40;;
9906;SDS011;4992;51.628;6.664;2024-03-17T00:16:53;11.10;;;7.10;;
9906;SDS011;4992;51.628;6.664;2024-03-17T00:19:18;9.20;;;7.03;;
9906;SDS011;4992;51.628;6.664;2024-03-17T00:21:44;8.27;;;6.20;;
9906;SDS011;4992;51.628;6.664;2024-03-17T00:24:09;8.97;;;6.57;;
9906;SDS011;4992;51.628;6.664;2024-03-17T00:26:35;9.03;;;6.80;;
9906;SDS011;4992;51.628;6.664;2024-03-17T00:29:00;9.00;;;6.40;;
9906;SDS011;4992;51.628;6.664;2024-03-17T00:31:28;9.33;;;7.13;;
9906;SDS011;4992;51.628;6.664;2024-03-17T00:33:53;7.63;;;6.77;;
9906;SDS011;4992;51.628;6.664;2024-03-17T00:36:19;16.43;;;7.30;;
9906;SDS011;4992;51.628;6.664;2024-03-17T00:38:45;8.63;;;7.13;;
9906;SDS011;4992;51.628;6.664;2024-03-17T00:41:10;8.33;;;7.10;;
9906;SDS011;4992;51.628;6.664;2024-03-17T00:43:36;9.23;;;6.80;;
9906;SDS011;4992;51.628;6.664;2024-03-17T00:46:02;10.07;;;7.03;;
9906;SDS011;4992;51.628;6.664;2024-03-17T00:48:28;9.77;;;7.03;;
9906;SDS011;4992;51.628;6.664;2024-03-17T00:50:55;9.80;;;7.23;;
9906;SDS011;4992;51.628;6.664;2024-03-17T00:53:21;7.93;;;6.90;;
9906;SDS011;4992;51.628;6.664;2024-03-17T00:55:53;9.60;;;6.67;;
9906;SDS011;4992;51.628;6.664;2024-03-17T00:58:28;7.03;;;6.27;;
9906;SDS011;4992;51.628;6.664;2024-03-17T01:00:53;8.80;;;6.33;;
9906;SDS011;4992;51.628;6.664;2024-03-17T01:03:19;11.00;;;6.73;;
9906;SDS011;4992;51.628;6.664;2024-03-17T01:05:45;11.73;;;7.37;;
9906;SDS011;4992;51.628;6.664;2024-03-17T01:08:13;9.63;;;7.57;;
9906;SDS011;4992;51.628;6.664;2024-03-17T01:10:39;10.73;;;7.03;;
9906;SDS011;4992;51.628;6.664;2024-03-17T01:13:06;11.87;;;6.83;;
9906;SDS011;4992;51.628;6.664;2024-03-17T01:15:32;9.53;;;7.17;;
9906;SDS011;4992;51.628;6.664;2024-03-17T01:17:58;8.27;;;6.53;;
9906;SDS011;4992;51.628;6.664;2024-03-17T01:20:24;9.33;;;7.00;;
9906;SDS011;4992;51.628;6.664;2024-03-17T01:22:50;9.67;;;6.60;;
9906;SDS011;4992;51.628;6.664;2024-03-17T01:25:16;8.50;;;7.30;;
9906;SDS011;4992;51.628;6.664;2024-03-17T01:27:42;10.07;;;7.03;;
9906;SDS011;4992;51.628;6.664;2024-03-17T01:30:08;8.77;;;6.70;;
9906;SDS011;4992;51.628;6.664;2024-03-17T01:32:35;10.77;;;7.73;;
9906;SDS011;4992;51.628;6.664;2024-03-17T01:35:00;7.93;;;6.60;;
9906;SDS011;4992;51.628;6.664;2024-03-17T01:37:26;9.27;;;6.73;;
9906;SDS011;4992;51.628;6.664;2024-03-17T01:39:52;8.43;;;7.30;;
9906;SDS011;4992;51.628;6.664;2024-03-17T01:42:17;10.83;;;7.83;;
9906;SDS011;4992;51.628;6.664;2024-03-17T01:44:43;10.90;;;7.67;;
9906;SDS011;4992;51.628;6.664;2024-03-17T01:47:09;9.83;;;7.23;;
9906;SDS011;4992;51.628;6.664;2024-03-17T01:49:35;11.63;;;7.20;;
9906;SDS011;4992;51.628;6.664;2024-03-17T01:52:01;8.33;;;7.20;;
9906;SDS011;4992;51.628;6.664;2024-03-17T01:54:28;9.43;;;6.83;;
9906;SDS011;4992;51.628;6.664;2024-03-17T01:56:54;11.17;;;7.60;;
9906;SDS011;4992;51.628;6.664;2024-03-17T01:59:20;10.30;;;7.67;;
9906;SDS011;4992;51.628;6.664;2024-03-17T02:01:46;10.50;;;7.70;;
9906;SDS011;4992;51.628;6.664;2024-03-17T02:04:11;10.87;;;7.23;;
9906;SDS011;4992;51.628;6.664;2024-03-17T02:06:37;11.20;;;7.87;;
9906;SDS011;4992;51.628;6.664;2024-03-17T02:09:02;9.47;;;7.57;;
9906;SDS011;4992;51.628;6.664;2024-03-17T02:11:29;8.80;;;6.67;;
9906;SDS011;4992;51.628;6.664;2024-03-17T02:13:56;8.30;;;7.10;;
9906;SDS011;4992;51.628;6.664;2024-03-17T02:16:22;9.20;;;7.43;;
9906;SDS011;4992;51.628;6.664;2024-03-17T02:18:48;8.57;;;7.67;;
9906;SDS011;4992;51.628;6.664;2024-03-17T02:21:14;8.70;;;7.13;;
9906;SDS011;4992;51.628;6.664;2024-03-17T02:23:43;9.93;;;7.63;;
9906;SDS011;4992;51.628;6.664;2024-03-17T02:26:09;13.27;;;7.93;;
9906;SDS011;4992;51.628;6.664;2024-03-17T02:28:38;9.77;;;7.47;;
9906;SDS011;4992;51.628;6.664;2024-03-17T02:31:05;10.20;;;7.03;;
9906;SDS011;4992;51.628;6.664;2024-03-17T02:33:31;10.27;;;7.40;;
9906;SDS011;4992;51.628;6.664;2024-03-17T02:35:57;10.97;;;7.53;;
9906;SDS011;4992;51.628;6.664;2024-03-17T02:38:22;7.67;;;6.97;;
9906;SDS011;4992;51.628;6.664;2024-03-17T02:41:07;8.93;;;7.43;;
9906;SDS011;4992;51.628;6.664;2024-03-17T02:43:33;8.77;;;7.83;;
9906;SDS011;4992;51.628;6.664;2024-03-17T02:46:00;10.23;;;7.27;;
9906;SDS011;4992;51.628;6.664;2024-03-17T02:48:29;9.17;;;7.30;;
9906;SDS011;4992;51.628;6.664;2024-03-17T02:50:55;14.57;;;8.47;;
9906;SDS011;4992;51.628;6.664;2024-03-17T02:53:21;10.33;;;7.90;;
9906;SDS011;4992;51.628;6.664;2024-03-17T02:55:46;12.20;;;7.63;;
9906;SDS011;4992;51.628;6.664;2024-03-17T02:58:12;8.77;;;6.93;;
9906;SDS011;4992;51.628;6.664;2024-03-17T03:00:38;8.90;;;6.87;;
9906;SDS011;4992;51.628;6.664;2024-03-17T03:03:05;13.60;;;7.33;;
9906;SDS011;4992;51.628;6.664;2024-03-17T03:05:30;8.47;;;7.17;;
9906;SDS011;4992;51.628;6.664;2024-03-17T03:07:56;10.80;;;8.00;;
9906;SDS011;4992;51.628;6.664;2024-03-17T03:10:21;9.77;;;8.27;;
9906;SDS011;4992;51.628;6.664;2024-03-17T03:12:47;9.37;;;7.43;;
9906;SDS011;4992;51.628;6.664;2024-03-17T03:15:13;9.97;;;7.20;;
9906;SDS011;4992;51.628;6.664;2024-03-17T03:17:38;9.50;;;8.20;;
9906;SDS011;4992;51.628;6.664;2024-03-17T03:20:04;11.03;;;7.30;;
9906;SDS011;4992;51.628;6.664;2024-03-17T03:22:30;11.37;;;8.03;;
9906;SDS011;4992;51.628;6.664;2024-03-17T03:24:56;10.77;;;7.80;;
9906;SDS011;4992;51.628;6.664;2024-03-17T03:27:22;9.97;;;8.37;;
9906;SDS011;4992;51.628;6.664;2024-03-17T03:29:49;10.87;;;8.03;;
9906;SDS011;4992;51.628;6.664;2024-03-17T03:32:15;11.03;;;7.53;;
9906;SDS011;4992;51.628;6.664;2024-03-17T03:34:40;10.10;;;7.53;;
9906;SDS011;4992;51.628;6.664;2024-03-17T03:37:06;8.63;;;7.43;;
9906;SDS011;4992;51.628;6.664;2024-03-17T03:39:33;11.47;;;8.13;;
9906;SDS011;4992;51.628;6.664;2024-03-17T03:42:01;9.47;;;7.77;;
9906;SDS011;4992;51.628;6.664;2024-03-17T03:44:27;8.83;;;7.90;;
9906;SDS011;4992;51.628;6.664;2024-03-17T03:46:53;11.83;;;7.57;;
9906;SDS011;4992;51.628;6.664;2024-03-17T03:49:23;10.70;;;7.80;;
9906;SDS011;4992;51.628;6.664;2024-03-17T03:51:49;10.40;;;7.73;;
9906;SDS011;4992;51.628;6.664;2024-03-17T03:54:15;8.90;;;7.70;;
9906;SDS011;4992;51.628;6.664;2024-03-17T03:56:40;8.77;;;7.53;;
9906;SDS011;4992;51.628;6.664;2024-03-17T03:59:06;11.57;;;7.93;;
9906;SDS011;4992;51.628;6.664;2024-03-17T04:01:32;10.17;;;8.20;;
9906;SDS011;4992;51.628;6.664;2024-03-17T04:03:57;9.57;;;7.83;;
9906;SDS011;4992;51.628;6.664;2024-03-17T04:06:23;9.07;;;8.00;;
9906;SDS011;4992;51.628;6.664;2024-03-17T04:08:48;9.80;;;8.10;;
9906;SDS011;4992;51.628;6.664;2024-03-17T04:11:14;10.73;;;8.20;;
9906;SDS011;4992;51.628;6.664;2024-03-17T04:13:39;11.27;;;8.27;;
9906;SDS011;4992;51.628;6.664;2024-03-17T04:16:06;9.37;;;8.37;;
9906;SDS011;4992;51.628;6.664;2024-03-17T04:18:32;10.97;;;7.90;;
9906;SDS011;4992;51.628;6.664;2024-03-17T04:21:02;9.37;;;8.13;;
9906;SDS011;4992;51.628;6.664;2024-03-17T04:23:29;10.93;;;8.67;;
9906;SDS011;4992;51.628;6.664;2024-03-17T04:25:59;10.67;;;7.80;;
9906;SDS011;4992;51.628;6.664;2024-03-17T04:28:25;12.17;;;7.83;;
9906;SDS011;4992;51.628;6.664;2024-03-17T04:30:51;10.63;;;7.77;;
9906;SDS011;4992;51.628;6.664;2024-03-17T04:33:17;8.93;;;7.83;;
9906;SDS011;4992;51.628;6.664;2024-03-17T04:35:43;10.53;;;7.70;;
9906;SDS011;4992;51.628;6.664;2024-03-17T04:38:08;12.63;;;8.23;;
9906;SDS011;4992;51.628;6.664;2024-03-17T04:40:35;9.20;;;7.53;;
9906;SDS011;4992;51.628;6.664;2024-03-17T04:43:07;10.70;;;7.90;;
9906;SDS011;4992;51.628;6.664;2024-03-17T04:45:33;8.83;;;7.27;;
9906;SDS011;4992;51.628;6.664;2024-03-17T04:47:59;7.90;;;7.07;;
9906;SDS011;4992;51.628;6.664;2024-03-17T04:50:24;9.57;;;7.77;;
9906;SDS011;4992;51.628;6.664;2024-03-17T04:52:51;15.10;;;8.23;;
9906;SDS011;4992;51.628;6.664;2024-03-17T04:55:17;12.27;;;8.03;;
9906;SDS011;4992;51.628;6.664;2024-03-17T04:57:43;12.03;;;7.90;;
9906;SDS011;4992;51.628;6.664;2024-03-17T05:00:12;12.90;;;8.03;;
9906;SDS011;4992;51.628;6.664;2024-03-17T05:02:39;14.70;;;9.20;;
9906;SDS011;4992;51.628;6.664;2024-03-17T05:05:05;14.33;;;9.27;;
9906;SDS011;4992;51.628;6.664;2024-03-17T05:07:33;14.03;;;9.67;;
9906;SDS011;4992;51.628;6.664;2024-03-17T05:09:58;15.23;;;11.23;;
9906;SDS011;4992;51.628;6.664;2024-03-17T05:12:24;15.50;;;10.90;;
9906;SDS011;4992;51.628;6.664;2024-03-17T05:14:49;17.77;;;12.83;;
9906;SDS011;4992;51.628;6.664;2024-03-17T05:17:15;15.20;;;11.83;;
9906;SDS011;4992;51.628;6.664;2024-03-17T05:19:41;15.90;;;11.03;;
9906;SDS011;4992;51.628;6.664;2024-03-17T05:22:07;17.43;;;12.27;;
9906;SDS011;4992;51.628;6.664;2024-03-17T05:24:32;22.27;;;12.73;;
9906;SDS011;4992;51.628;6.664;2024-03-17T05:26:58;16.60;;;11.97;;
9906;SDS011;4992;51.628;6.664;2024-03-17T05:29:23;16.60;;;13.07;;
9906;SDS011;4992;51.628;6.664;2024-03-17T05:31:49;17.67;;;12.53;;
9906;SDS011;4992;51.628;6.664;2024-03-17T05:34:15;17.40;;;12.70;;
9906;SDS011;4992;51.628;6.664;2024-03-17T05:36:41;18.70;;;12.37;;
9906;SDS011;4992;51.628;6.664;2024-03-17T05:39:06;18.43;;;12.83;;
9906;SDS011;4992;51.628;6.664;2024-03-17T05:41:32;18.10;;;12.57;;
9906;SDS011;4992;51.628;6.664;2024-03-17T05:43:57;14.77;;;11.70;;
9906;SDS011;4992;51.628;6.664;2024-03-17T05:46:23;14.20;;;11.73;;
9906;SDS011;4992;51.628;6.664;2024-03-17T05:48:53;17.03;;;12.37;;
9906;SDS011;4992;51.628;6.664;2024-03-17T05:51:19;15.13;;;12.03;;
9906;SDS011;4992;51.628;6.664;2024-03-17T05:53:44;16.17;;;11.57;;
9906;SDS011;4992;51.628;6.664;2024-03-17T05:56:10;18.47;;;12.63;;
9906;SDS011;4992;51.628;6.664;2024-03-17T05:58:37;23.67;;;18.43;;
9906;SDS011;4992;51.628;6.664;2024-03-17T06:01:03;22.03;;;15.93;;
9906;SDS011;4992;51.628;6.664;2024-03-17T06:03:29;22.53;;;15.93;;
9906;SDS011;4992;51.628;6.664;2024-03-17T06:05:57;22.93;;;16.47;;
9906;SDS011;4992;51.628;6.664;2024-03-17T06:08:23;35.03;;;24.13;;
9906;SDS011;4992;51.628;6.664;2024-03-17T06:10:50;22.77;;;18.43;;
9906;SDS011;4992;51.628;6.664;2024-03-17T06:13:15;33.30;;;24.23;;
9906;SDS011;4992;51.628;6.664;2024-03-17T06:15:42;28.47;;;20.40;;
9906;SDS011;4992;51.628;6.664;2024-03-17T06:18:09;28.60;;;20.33;;
9906;SDS011;4992;51.628;6.664;2024-03-17T06:20:42;18.50;;;13.33;;
9906;SDS011;4992;51.628;6.664;2024-03-17T06:23:11;18.90;;;13.17;;
9906;SDS011;4992;51.628;6.664;2024-03-17T06:25:41;17.70;;;13.10;;
9906;SDS011;4992;51.628;6.664;2024-03-17T06:28:08;13.93;;;12.43;;
9906;SDS011;4992;51.628;6.664;2024-03-17T06:30:38;16.07;;;11.67;;
9906;SDS011;4992;51.628;6.664;2024-03-17T06:33:05;17.13;;;11.43;;
9906;SDS011;4992;51.628;6.664;2024-03-17T06:35:31;13.70;;;10.87;;
9906;SDS011;4992;51.628;6.664;2024-03-17T06:37:59;13.47;;;10.87;;
9906;SDS011;4992;51.628;6.664;2024-03-17T06:40:26;14.80;;;11.50;;
9906;SDS011;4992;51.628;6.664;2024-03-17T06:42:51;12.17;;;10.73;;
9906;SDS011;4992;51.628;6.664;2024-03-17T06:45:18;13.07;;;9.97;;
9906;SDS011;4992;51.628;6.664;2024-03-17T06:47:45;14.03;;;10.10;;
9906;SDS011;4992;51.628;6.664;2024-03-17T06:50:11;13.97;;;9.83;;
9906;SDS011;4992;51.628;6.664;2024-03-17T06:52:37;11.57;;;8.33;;
9906;SDS011;4992;51.628;6.664;2024-03-17T06:55:02;11.50;;;8.20;;
9906;SDS011;4992;51.628;6.664;2024-03-17T06:57:29;11.63;;;8.60;;
9906;SDS011;4992;51.628;6.664;2024-03-17T06:59:54;12.00;;;8.63;;
9906;SDS011;4992;51.628;6.664;2024-03-17T07:02:20;11.63;;;8.17;;
9906;SDS011;4992;51.628;6.664;2024-03-17T07:04:46;9.97;;;8.27;;
9906;SDS011;4992;51.628;6.664;2024-03-17T07:07:12;9.53;;;8.17;;
9906;SDS011;4992;51.628;6.664;2024-03-17T07:09:38;12.77;;;8.43;;
9906;SDS011;4992;51.628;6.664;2024-03-17T07:12:08;9.57;;;8.20;;
9906;SDS011;4992;51.628;6.664;2024-03-17T07:14:35;11.60;;;7.97;;
9906;SDS011;4992;51.628;6.664;2024-03-17T07:17:01;8.03;;;7.20;;
9906;SDS011;4992;51.628;6.664;2024-03-17T07:19:27;9.00;;;7.13;;
9906;SDS011;4992;51.628;6.664;2024-03-17T07:21:53;9.60;;;7.30;;
9906;SDS011;4992;51.628;6.664;2024-03-17T07:24:19;10.80;;;7.37;;
9906;SDS011;4992;51.628;6.664;2024-03-17T07:26:47;8.67;;;7.30;;
9906;SDS011;4992;51.628;6.664;2024-03-17T07:29:13;12.23;;;7.97;;
9906;SDS011;4992;51.628;6.664;2024-03-17T07:31:39;9.20;;;7.13;;
9906;SDS011;4992;51.628;6.664;2024-03-17T07:34:04;8.33;;;7.10;;
9906;SDS011;4992;51.628;6.664;2024-03-17T07:36:30;8.47;;;6.60;;
9906;SDS011;4992;51.628;6.664;2024-03-17T07:38:56;7.10;;;6.40;;
9906;SDS011;4992;51.628;6.664;2024-03-17T07:41:21;7.80;;;6.93;;
9906;SDS011;4992;51.628;6.664;2024-03-17T07:43:49;8.83;;;6.90;;
9906;SDS011;4992;51.628;6.664;2024-03-17T07:46:14;8.93;;;6.43;;
9906;SDS011;4992;51.628;6.664;2024-03-17T07:48:40;6.30;;;5.70;;
9906;SDS011;4992;51.628;6.664;2024-03-17T07:51:08;11.07;;;6.87;;
9906;SDS011;4992;51.628;6.664;2024-03-17T07:53:36;8.57;;;6.10;;
9906;SDS011;4992;51.628;6.664;2024-03-17T07:56:03;8.20;;;6.20;;
9906;SDS011;4992;51.628;6.664;2024-03-17T07:58:34;7.30;;;5.77;;
9906;SDS011;4992;51.628;6.664;2024-03-17T08:01:01;9.37;;;5.93;;
9906;SDS011;4992;51.628;6.664;2024-03-17T08:03:37;7.53;;;5.47;;
9906;SDS011;4992;51.628;6.664;2024-03-17T08:06:09;5.87;;;4.93;;
9906;SDS011;4992;51.628;6.664;2024-03-17T08:08:36;8.83;;;5.33;;
9906;SDS011;4992;51.628;6.664;2024-03-17T08:11:02;9.97;;;5.23;;
9906;SDS011;4992;51.628;6.664;2024-03-17T08:13:28;8.23;;;6.07;;
9906;SDS011;4992;51.628;6.664;2024-03-17T08:15:59;7.63;;;4.57;;
9906;SDS011;4992;51.628;6.664;2024-03-17T08:18:27;6.10;;;4.40;;
9906;SDS011;4992;51.628;6.664;2024-03-17T08:20:53;6.40;;;4.27;;
9906;SDS011;4992;51.628;6.664;2024-03-17T08:23:19;6.13;;;3.53;;
9906;SDS011;4992;51.628;6.664;2024-03-17T08:25:55;5.03;;;4.10;;
9906;SDS011;4992;51.628;6.664;2024-03-17T08:28:22;6.53;;;3.92;;
9906;SDS011;4992;51.628;6.664;2024-03-17T08:30:52;4.50;;;3.88;;
9906;SDS011;4992;51.628;6.664;2024-03-17T08:33:25;6.68;;;3.50;;
9906;SDS011;4992;51.628;6.664;2024-03-17T08:35:57;4.63;;;3.53;;
9906;SDS011;4992;51.628;6.664;2024-03-17T08:38:25;5.95;;;3.53;;
9906;SDS011;4992;51.628;6.664;2024-03-17T08:40:53;4.07;;;3.28;;
9906;SDS011;4992;51.628;6.664;2024-03-17T08:43:20;8.63;;;3.30;;
9906;SDS011;4992;51.628;6.664;2024-03-17T08:45:59;5.15;;;3.05;;
9906;SDS011;4992;51.628;6.664;2024-03-17T08:48:32;6.43;;;3.22;;
9906;SDS011;4992;51.628;6.664;2024-03-17T08:51:00;5.93;;;3.25;;
9906;SDS011;4992;51.628;6.664;2024-03-17T08:53:27;5.93;;;3.20;;
9906;SDS011;4992;51.628;6.664;2024-03-17T08:55:53;7.82;;;3.67;;
9906;SDS011;4992;51.628;6.664;2024-03-17T08:58:19;10.05;;;4.20;;
9906;SDS011;4992;51.628;6.664;2024-03-17T09:00:45;6.03;;;3.30;;
9906;SDS011;4992;51.628;6.664;2024-03-17T09:03:10;6.55;;;3.53;;
9906;SDS011;4992;51.628;6.664;2024-03-17T09:05:37;7.95;;;4.38;;
9906;SDS011;4992;51.628;6.664;2024-03-17T09:08:04;6.43;;;4.32;;
9906;SDS011;4992;51.628;6.664;2024-03-17T09:10:38;6.70;;;3.92;;
9906;SDS011;4992;51.628;6.664;2024-03-17T09:13:09;9.57;;;4.15;;
9906;SDS011;4992;51.628;6.664;2024-03-17T09:15:49;6.78;;;4.10;;
9906;SDS011;4992;51.628;6.664;2024-03-17T09:18:36;9.18;;;4.55;;
9906;SDS011;4992;51.628;6.664;2024-03-17T09:21:03;5.95;;;4.28;;
9906;SDS011;4992;51.628;6.664;2024-03-17T09:23:30;6.93;;;4.43;;
9906;SDS011;4992;51.628;6.664;2024-03-17T09:26:05;5.20;;;3.78;;
9906;SDS011;4992;51.628;6.664;2024-03-17T09:28:41;7.22;;;4.57;;
9906;SDS011;4992;51.628;6.664;2024-03-17T09:31:06;6.68;;;4.03;;
9906;SDS011;4992;51.628;6.664;2024-03-17T09:33:32;5.75;;;4.20;;
9906;SDS011;4992;51.628;6.664;2024-03-17T09:35:59;9.30;;;5.07;;
9906;SDS011;4992;51.628;6.664;2024-03-17T09:38:29;9.07;;;4.07;;
9906;SDS011;4992;51.628;6.664;2024-03-17T09:40:55;8.15;;;4.28;;
9906;SDS011;4992;51.628;6.664;2024-03-17T09:43:25;9.43;;;4.32;;
9906;SDS011;4992;51.628;6.664;2024-03-17T09:45:53;9.73;;;5.03;;
9906;SDS011;4992;51.628;6.664;2024-03-17T09:48:22;7.07;;;4.53;;
9906;SDS011;4992;51.628;6.664;2024-03-17T09:50:55;8.02;;;4.22;;
9906;SDS011;4992;51.628;6.664;2024-03-17T09:53:26;9.85;;;4.93;;
9906;SDS011;4992;51.628;6.664;2024-03-17T09:55:57;5.90;;;3.97;;
9906;SDS011;4992;51.628;6.664;2024-03-17T09:58:23;8.40;;;4.78;;
9906;SDS011;4992;51.628;6.664;2024-03-17T10:00:49;7.65;;;4.93;;
9906;SDS011;4992;51.628;6.664;2024-03-17T10:06:10;6.00;;;4.45;;
9906;SDS011;4992;51.628;6.664;2024-03-17T10:08:55;7.65;;;4.28;;
9906;SDS011;4992;51.628;6.664;2024-03-17T10:11:32;8.85;;;4.55;;
9906;SDS011;4992;51.628;6.664;2024-03-17T10:14:01;6.30;;;3.85;;
9906;SDS011;4992;51.628;6.664;2024-03-17T10:16:31;9.23;;;4.22;;
9906;SDS011;4992;51.628;6.664;2024-03-17T10:21:49;6.47;;;3.88;;
9906;SDS011;4992;51.628;6.664;2024-03-17T10:24:22;8.15;;;4.10;;
9906;SDS011;4992;51.628;6.664;2024-03-17T10:26:53;8.52;;;3.90;;
9906;SDS011;4992;51.628;6.664;2024-03-17T10:29:34;6.28;;;3.70;;
9906;SDS011;4992;51.628;6.664;2024-03-17T10:32:04;5.80;;;3.40;;
9906;SDS011;4992;51.628;6.664;2024-03-17T10:34:38;6.22;;;3.67;;
9906;SDS011;4992;51.628;6.664;2024-03-17T10:39:37;4.93;;;3.58;;
9906;SDS011;4992;51.628;6.664;2024-03-17T10:42:04;4.90;;;3.22;;
9906;SDS011;4992;51.628;6.664;2024-03-17T10:44:32;15.60;;;6.40;;
9906;SDS011;4992;51.628;6.664;2024-03-17T10:47:00;7.38;;;4.28;;
9906;SDS011;4992;51.628;6.664;2024-03-17T10:49:30;4.40;;;3.45;;
9906;SDS011;4992;51.628;6.664;2024-03-17T10:51:58;5.38;;;3.25;;
9906;SDS011;4992;51.628;6.664;2024-03-17T10:54:26;4.55;;;3.22;;
9906;SDS011;4992;51.628;6.664;2024-03-17T10:56:55;4.85;;;3.22;;
9906;SDS011;4992;51.628;6.664;2024-03-17T10:59:25;5.70;;;3.15;;
9906;SDS011;4992;51.628;6.664;2024-03-17T11:02:00;3.72;;;2.90;;
9906;SDS011;4992;51.628;6.664;2024-03-17T11:04:28;3.53;;;2.50;;
9906;SDS011;4992;51.628;6.664;2024-03-17T11:06:53;5.13;;;3.17;;
9906;SDS011;4992;51.628;6.664;2024-03-17T11:09:23;4.60;;;3.05;;
9906;SDS011;4992;51.628;6.664;2024-03-17T11:11:49;3.15;;;2.72;;
9906;SDS011;4992;51.628;6.664;2024-03-17T11:14:18;3.90;;;2.60;;
9906;SDS011;4992;51.628;6.664;2024-03-17T11:16:47;6.85;;;2.95;;
9906;SDS011;4992;51.628;6.664;2024-03-17T11:19:16;6.03;;;3.20;;
9906;SDS011;4992;51.628;6.664;2024-03-17T11:21:42;4.85;;;3.38;;
9906;SDS011;4992;51.628;6.664;2024-03-17T11:24:18;5.68;;;3.15;;
9906;SDS011;4992;51.628;6.664;2024-03-17T11:26:45;3.35;;;2.80;;
9906;SDS011;4992;51.628;6.664;2024-03-17T11:29:26;5.70;;;4.72;;
9906;SDS011;4992;51.628;6.664;2024-03-17T11:31:53;6.38;;;3.42;;
9906;SDS011;4992;51.628;6.664;2024-03-17T11:34:30;6.53;;;5.13;;
9906;SDS011;4992;51.628;6.664;2024-03-17T11:37:05;3.65;;;3.20;;
9906;SDS011;4992;51.628;6.664;2024-03-17T11:39:46;5.30;;;2.97;;
9906;SDS011;4992;51.628;6.664;2024-03-17T11:42:20;5.50;;;3.25;;
9906;SDS011;4992;51.628;6.664;2024-03-17T11:44:55;4.88;;;3.53;;
9906;SDS011;4992;51.628;6.664;2024-03-17T11:47:23;4.43;;;3.08;;
9906;SDS011;4992;51.628;6.664;2024-03-17T11:49:57;3.70;;;3.10;;
9906;SDS011;4992;51.628;6.664;2024-03-17T11:52:26;5.75;;;3.30;;
9906;SDS011;4992;51.628;6.664;2024-03-17T11:54:52;4.60;;;2.75;;
9906;SDS011;4992;51.628;6.664;2024-03-17T11:57:21;5.22;;;3.13;;
9906;SDS011;4992;51.628;6.664;2024-03-17T11:59:48;3.40;;;2.88;;
9906;SDS011;4992;51.628;6.664;2024-03-17T12:02:16;3.22;;;2.63;;
9906;SDS011;4992;51.628;6.664;2024-03-17T12:04:47;3.40;;;3.05;;
9906;SDS011;4992;51.628;6.664;2024-03-17T12:07:15;4.57;;;2.55;;
9906;SDS011;4992;51.628;6.664;2024-03-17T12:09:42;3.40;;;2.90;;
9906;SDS011;4992;51.628;6.664;2024-03-17T12:12:14;5.13;;;3.22;;
9906;SDS011;4992;51.628;6.664;2024-03-17T12:14:41;4.35;;;3.05;;
9906;SDS011;4992;51.628;6.664;2024-03-17T12:17:07;7.57;;;3.70;;
9906;SDS011;4992;51.628;6.664;2024-03-17T12:19:34;5.28;;;3.50;;
9906;SDS011;4992;51.628;6.664;2024-03-17T12:22:01;4.60;;;3.38;;
9906;SDS011;4992;51.628;6.664;2024-03-17T12:24:28;5.00;;;3.58;;
9906;SDS011;4992;51.628;6.664;2024-03-17T12:26:56;5.35;;;3.45;;
9906;SDS011;4992;51.628;6.664;2024-03-17T12:29:25;5.63;;;3.20;;
9906;SDS011;4992;51.628;6.664;2024-03-17T12:32:12;3.90;;;3.22;;
9906;SDS011;4992;51.628;6.664;2024-03-17T12:34:38;4.38;;;2.78;;
9906;SDS011;4992;51.628;6.664;2024-03-17T12:37:04;6.72;;;3.17;;
9906;SDS011;4992;51.628;6.664;2024-03-17T12:39:31;4.38;;;2.60;;
9906;SDS011;4992;51.628;6.664;2024-03-17T12:42:16;5.15;;;2.83;;
9906;SDS011;4992;51.628;6.664;2024-03-17T12:44:56;4.10;;;3.20;;
9906;SDS011;4992;51.628;6.664;2024-03-17T12:47:24;3.53;;;3.17;;
9906;SDS011;4992;51.628;6.664;2024-03-17T12:49:54;3.90;;;3.08;;
9906;SDS011;4992;51.628;6.664;2024-03-17T12:52:27;5.20;;;3.47;;
9906;SDS011;4992;51.628;6.664;2024-03-17T12:57:42;6.43;;;3.08;;
9906;SDS011;4992;51.628;6.664;2024-03-17T13:00:27;4.25;;;3.30;;
9906;SDS011;4992;51.628;6.664;2024-03-17T13:02:59;7.25;;;3.35;;
9906;SDS011;4992;51.628;6.664;2024-03-17T13:05:26;8.02;;;3.65;;
9906;SDS011;4992;51.628;6.664;2024-03-17T13:07:52;4.60;;;3.30;;
9906;SDS011;4992;51.628;6.664;2024-03-17T13:10:19;5.40;;;3.15;;
9906;SDS011;4992;51.628;6.664;2024-03-17T13:12:48;5.40;;;2.80;;
9906;SDS011;4992;51.628;6.664;2024-03-17T13:15:25;3.78;;;2.92;;
9906;SDS011;4992;51.628;6.664;2024-03-17T13:17:50;4.28;;;2.92;;
9906;SDS011;4992;51.628;6.664;2024-03-17T13:20:16;4.55;;;3.17;;
9906;SDS011;4992;51.628;6.664;2024-03-17T13:22:45;4.35;;;2.60;;
9906;SDS011;4992;51.628;6.664;2024-03-17T13:25:15;5.00;;;3.35;;
9906;SDS011;4992;51.628;6.664;2024-03-17T13:27:42;4.30;;;3.13;;
9906;SDS011;4992;51.628;6.664;2024-03-17T13:30:08;5.18;;;3.50;;
9906;SDS011;4992;51.628;6.664;2024-03-17T13:32:34;5.85;;;3.20;;
9906;SDS011;4992;51.628;6.664;2024-03-17T13:35:01;5.50;;;3.42;;
9906;SDS011;4992;51.628;6.664;2024-03-17T13:37:27;5.30;;;3.03;;
9906;SDS011;4992;51.628;6.664;2024-03-17T13:39:52;5.75;;;3.30;;
9906;SDS011;4992;51.628;6.664;2024-03-17T13:42:18;6.07;;;3.00;;
9906;SDS011;4992;51.628;6.664;2024-03-17T13:44:43;5.03;;;2.72;;
9906;SDS011;4992;51.628;6.664;2024-03-17T13:47:09;3.85;;;2.65;;
9906;SDS011;4992;51.628;6.664;2024-03-17T13:49:34;4.55;;;2.83;;
9906;SDS011;4992;51.628;6.664;2024-03-17T13:52:00;5.03;;;3.10;;
9906;SDS011;4992;51.628;6.664;2024-03-17T13:54:26;4.85;;;2.95;;
9906;SDS011;4992;51.628;6.664;2024-03-17T13:56:52;4.53;;;2.60;;
9906;SDS011;4992;51.628;6.664;2024-03-17T13:59:19;5.13;;;2.80;;
9906;SDS011;4992;51.628;6.664;2024-03-17T14:01:44;3.50;;;2.72;;
9906;SDS011;4992;51.628;6.664;2024-03-17T14:04:15;3.22;;;2.92;;
9906;SDS011;4992;51.628;6.664;2024-03-17T14:06:43;5.35;;;2.67;;
9906;SDS011;4992;51.628;6.664;2024-03-17T14:09:11;6.82;;;2.80;;
9906;SDS011;4992;51.628;6.664;2024-03-17T14:11:37;5.75;;;2.80;;
9906;SDS011;4992;51.628;6.664;2024-03-17T14:14:03;4.30;;;2.95;;
9906;SDS011;4992;51.628;6.664;2024-03-17T14:16:30;3.45;;;2.30;;
9906;SDS011;4992;51.628;6.664;2024-03-17T14:18:59;5.70;;;2.42;;
9906;SDS011;4992;51.628;6.664;2024-03-17T14:21:26;4.22;;;2.53;;
9906;SDS011;4992;51.628;6.664;2024-03-17T14:23:53;2.60;;;2.38;;
9906;SDS011;4992;51.628;6.664;2024-03-17T14:26:19;5.82;;;2.83;;
9906;SDS011;4992;51.628;6.664;2024-03-17T14:28:44;3.05;;;2.70;;
9906;SDS011;4992;51.628;6.664;2024-03-17T14:31:11;5.82;;;2.90;;
9906;SDS011;4992;51.628;6.664;2024-03-17T14:33:36;3.42;;;2.40;;
9906;SDS011;4992;51.628;6.664;2024-03-17T14:36:02;3.63;;;2.70;;
9906;SDS011;4992;51.628;6.664;2024-03-17T14:38:28;3.92;;;2.58;;
9906;SDS011;4992;51.628;6.664;2024-03-17T14:40:55;4.22;;;2.85;;
9906;SDS011;4992;51.628;6.664;2024-03-17T14:43:21;6.57;;;2.85;;
9906;SDS011;4992;51.628;6.664;2024-03-17T14:45:46;2.80;;;2.20;;
9906;SDS011;4992;51.628;6.664;2024-03-17T14:48:12;2.72;;;2.40;;
9906;SDS011;4992;51.628;6.664;2024-03-17T14:50:40;2.67;;;2.47;;
9906;SDS011;4992;51.628;6.664;2024-03-17T14:53:06;3.10;;;2.75;;
9906;SDS011;4992;51.628;6.664;2024-03-17T14:55:32;3.28;;;2.28;;
9906;SDS011;4992;51.628;6.664;2024-03-17T14:57:57;3.88;;;2.60;;
9906;SDS011;4992;51.628;6.664;2024-03-17T15:00:23;3.67;;;2.35;;
9906;SDS011;4992;51.628;6.664;2024-03-17T15:02:51;3.67;;;2.78;;
9906;SDS011;4992;51.628;6.664;2024-03-17T15:05:17;5.75;;;3.47;;
9906;SDS011;4992;51.628;6.664;2024-03-17T15:07:44;5.07;;;4.43;;
9906;SDS011;4992;51.628;6.664;2024-03-17T15:10:09;3.42;;;2.70;;
9906;SDS011;4992;51.628;6.664;2024-03-17T15:12:37;4.65;;;2.42;;
9906;SDS011;4992;51.628;6.664;2024-03-17T15:15:05;5.03;;;2.13;;
9906;SDS011;4992;51.628;6.664;2024-03-17T15:17:33;6.20;;;2.95;;
9906;SDS011;4992;51.628;6.664;2024-03-17T15:20:02;2.33;;;2.00;;
9906;SDS011;4992;51.628;6.664;2024-03-17T15:22:41;2.65;;;2.15;;
9906;SDS011;4992;51.628;6.664;2024-03-17T15:25:14;3.08;;;2.20;;